createdAt,value
2023-01-19T00:00:55.639Z,33.13
2023-01-19T00:03:22.896Z,35.35
2023-01-19T00:05:50.206Z,32.70
2023-01-19T00:08:18.765Z,39.65
2023-01-19T00:10:47.481Z,37.55
2023-01-19T00:13:15.637Z,36.20
2023-01-19T00:15:43.080Z,29.13
2023-01-19T00:18:11.195Z,30.35
2023-01-19T00:20:39.143Z,32.60
2023-01-19T00:23:14.178Z,21.90
2023-01-19T00:25:44.498Z,22.50
2023-01-19T00:28:12.473Z,26.17
2023-01-19T00:30:40.209Z,19.17
2023-01-19T00:33:07.712Z,21.23
2023-01-19T00:35:36.014Z,21.55
2023-01-19T00:38:03.953Z,19.58
2023-01-19T00:40:31.218Z,15.68
2023-01-19T00:42:58.877Z,13.10
2023-01-19T00:45:26.408Z,12.63
2023-01-19T00:47:57.018Z,9.98
2023-01-19T00:50:28.547Z,10.30
2023-01-19T00:52:56.746Z,11.73
2023-01-19T00:55:24.386Z,9.43
2023-01-19T00:57:51.669Z,8.70
2023-01-19T01:00:19.968Z,10.20
2023-01-19T01:02:48.048Z,7.95
2023-01-19T01:05:15.375Z,6.50
2023-01-19T01:07:45.933Z,10.88
2023-01-19T01:10:14.561Z,7.30
2023-01-19T01:12:41.908Z,6.60
2023-01-19T01:15:23.691Z,7.97
2023-01-19T01:17:53.120Z,7.70
2023-01-19T01:20:22.014Z,6.57
2023-01-19T01:22:50.719Z,10.38
2023-01-19T01:25:19.492Z,4.78
2023-01-19T01:27:46.967Z,9.05
2023-01-19T01:30:14.936Z,7.13
2023-01-19T01:32:42.748Z,8.93
2023-01-19T01:35:10.674Z,8.23
2023-01-19T01:37:38.462Z,9.98
2023-01-19T01:40:06.870Z,8.35
2023-01-19T01:42:35.050Z,5.65
2023-01-19T01:45:06.069Z,9.18
2023-01-19T01:47:42.238Z,7.05
2023-01-19T01:50:12.170Z,7.55
2023-01-19T01:53:06.563Z,5.50
2023-01-19T01:55:36.750Z,2.72
2023-01-19T02:00:51.364Z,5.75
2023-01-19T02:03:18.711Z,6.78
2023-01-19T02:05:46.721Z,10.52
2023-01-19T02:08:35.118Z,5.07
2023-01-19T02:11:21.807Z,6.93
2023-01-19T02:13:49.148Z,7.10
2023-01-19T02:16:18.565Z,7.10
2023-01-19T02:18:45.872Z,5.07
2023-01-19T02:21:22.060Z,8.10
2023-01-19T02:23:50.571Z,3.67
2023-01-19T02:26:20.200Z,4.10
2023-01-19T02:28:50.939Z,4.18
2023-01-19T02:31:18.455Z,6.25
2023-01-19T02:33:46.078Z,4.60
2023-01-19T02:36:15.201Z,7.07
2023-01-19T02:38:43.495Z,5.15
2023-01-19T02:41:12.891Z,6.63
2023-01-19T02:43:41.296Z,6.85
2023-01-19T02:46:08.813Z,4.22
2023-01-19T02:48:36.132Z,4.50
2023-01-19T02:51:12.568Z,4.97
2023-01-19T02:54:03.963Z,6.90
2023-01-19T02:56:39.781Z,3.75
2023-01-19T02:59:23.856Z,5.22
2023-01-19T03:01:51.183Z,6.15
2023-01-19T03:04:49.436Z,5.85
2023-01-19T03:07:35.314Z,9.32
2023-01-19T03:10:13.895Z,5.07
2023-01-19T03:12:58.885Z,4.72
2023-01-19T03:15:29.735Z,4.80
2023-01-19T03:17:58.293Z,4.95
2023-01-19T03:20:28.757Z,6.38
2023-01-19T03:23:00.155Z,2.42
2023-01-19T03:25:28.871Z,2.83
2023-01-19T03:27:57.962Z,3.42
2023-01-19T03:30:28.395Z,6.88
2023-01-19T03:32:58.396Z,1.67
2023-01-19T03:35:27.178Z,6.32
2023-01-19T03:37:58.196Z,5.22
2023-01-19T03:40:30.108Z,4.25
2023-01-19T03:42:58.235Z,3.55
2023-01-19T03:45:25.949Z,3.20
2023-01-19T03:47:53.273Z,4.00
2023-01-19T03:50:28.094Z,3.63
2023-01-19T03:53:10.215Z,4.50
2023-01-19T03:55:38.650Z,3.83
2023-01-19T03:58:05.908Z,9.93
2023-01-19T04:00:36.543Z,5.32
2023-01-19T04:03:04.738Z,5.25
2023-01-19T04:05:32.317Z,7.28
2023-01-19T04:07:59.657Z,4.38
2023-01-19T04:10:26.869Z,3.72
2023-01-19T04:13:01.009Z,4.45
2023-01-19T04:15:29.272Z,4.00
2023-01-19T04:18:00.154Z,6.45
2023-01-19T04:20:28.297Z,2.47
2023-01-19T04:22:57.493Z,2.70
2023-01-19T04:25:24.723Z,3.05
2023-01-19T04:27:55.244Z,3.83
2023-01-19T04:30:22.737Z,3.38
2023-01-19T04:32:50.057Z,4.55
2023-01-19T04:35:17.278Z,1.15
2023-01-19T04:37:47.427Z,2.15
2023-01-19T04:40:14.782Z,3.80
2023-01-19T04:42:45.628Z,2.17
2023-01-19T04:45:13.711Z,4.25
2023-01-19T04:47:42.831Z,4.37
2023-01-19T04:50:11.183Z,7.70
2023-01-19T04:52:38.508Z,1.35
2023-01-19T04:55:06.538Z,3.40
2023-01-19T04:57:33.844Z,5.95
2023-01-19T05:00:01.194Z,2.33
2023-01-19T05:02:28.477Z,3.67
2023-01-19T05:04:55.807Z,3.05
2023-01-19T05:07:23.085Z,1.75
2023-01-19T05:09:50.372Z,4.88
2023-01-19T05:12:17.781Z,3.20
2023-01-19T05:14:45.119Z,4.30
2023-01-19T05:17:12.485Z,3.78
2023-01-19T05:19:39.704Z,1.40
2023-01-19T05:22:07.077Z,2.78
2023-01-19T05:24:34.363Z,2.00
2023-01-19T05:27:01.811Z,3.80
2023-01-19T05:29:29.101Z,1.70
2023-01-19T05:31:56.405Z,1.88
2023-01-19T05:34:23.735Z,3.25
2023-01-19T05:36:51.300Z,3.30
2023-01-19T05:39:18.511Z,3.00
2023-01-19T05:41:45.853Z,2.05
2023-01-19T05:44:13.604Z,2.05
2023-01-19T05:46:41.411Z,5.75
2023-01-19T05:49:09.077Z,3.30
2023-01-19T05:51:38.480Z,1.55
2023-01-19T05:54:06.153Z,2.42
2023-01-19T05:56:33.682Z,1.75
2023-01-19T05:59:01.427Z,1.13
2023-01-19T06:01:32.165Z,4.82
2023-01-19T06:03:59.496Z,1.95
2023-01-19T06:06:26.740Z,4.90
2023-01-19T06:08:53.958Z,4.05
2023-01-19T06:11:22.703Z,3.30
2023-01-19T06:13:49.919Z,2.13
2023-01-19T06:16:17.227Z,10.60
2023-01-19T06:18:44.452Z,2.53
2023-01-19T06:21:14.243Z,2.85
2023-01-19T06:23:41.677Z,3.22
2023-01-19T06:26:09.079Z,1.60
2023-01-19T06:28:36.305Z,1.77
2023-01-19T06:31:03.795Z,3.30
2023-01-19T06:33:31.594Z,7.57
2023-01-19T06:35:58.919Z,3.80
2023-01-19T06:38:26.149Z,1.90
2023-01-19T06:40:55.115Z,2.20
2023-01-19T06:45:50.504Z,1.37
2023-01-19T06:48:18.205Z,4.68
2023-01-19T06:50:45.994Z,4.25
2023-01-19T06:53:13.666Z,3.13
2023-01-19T06:55:40.793Z,3.58
2023-01-19T06:58:08.094Z,4.20
2023-01-19T07:00:35.340Z,5.00
2023-01-19T07:03:03.258Z,1.52
2023-01-19T07:05:30.815Z,4.77
2023-01-19T07:07:58.434Z,4.47
2023-01-19T07:10:25.692Z,4.57
2023-01-19T07:12:53.339Z,11.35
2023-01-19T07:15:21.813Z,4.57
2023-01-19T07:17:49.610Z,3.60
2023-01-19T07:20:19.536Z,0.98
2023-01-19T07:22:46.835Z,4.40
2023-01-19T07:25:14.857Z,3.65
2023-01-19T07:27:42.263Z,3.88
2023-01-19T07:30:09.963Z,16.15
2023-01-19T07:32:38.031Z,7.75
2023-01-19T07:35:05.570Z,3.20
2023-01-19T07:37:32.883Z,6.90
2023-01-19T07:40:00.452Z,2.00
2023-01-19T07:42:27.868Z,3.47
2023-01-19T07:44:55.231Z,3.50
2023-01-19T07:47:22.439Z,2.78
2023-01-19T07:49:49.732Z,0.68
2023-01-19T07:52:17.075Z,1.67
2023-01-19T07:54:44.658Z,1.77
2023-01-19T07:57:11.989Z,1.90
2023-01-19T07:59:39.233Z,30.75
2023-01-19T08:02:07.932Z,3.50
2023-01-19T08:04:35.330Z,3.60
2023-01-19T08:07:03.803Z,2.05
2023-01-19T08:09:31.028Z,3.50
2023-01-19T08:11:58.303Z,1.30
2023-01-19T08:14:25.566Z,1.83
2023-01-19T08:16:52.860Z,1.85
2023-01-19T08:19:20.150Z,4.25
2023-01-19T08:21:47.458Z,2.05
2023-01-19T08:24:19.437Z,5.28
2023-01-19T08:26:46.842Z,2.53
2023-01-19T08:29:14.141Z,2.47
2023-01-19T08:31:41.958Z,1.38
2023-01-19T08:34:09.424Z,1.15
2023-01-19T08:36:36.675Z,2.72
2023-01-19T08:39:03.988Z,1.88
2023-01-19T08:41:32.410Z,2.53
2023-01-19T08:43:59.723Z,16.95
2023-01-19T08:46:27.366Z,5.63
2023-01-19T08:48:54.951Z,6.50
2023-01-19T08:51:22.400Z,4.78
2023-01-19T08:53:49.908Z,3.20
2023-01-19T08:56:20.365Z,1.07
2023-01-19T08:58:53.617Z,5.55
2023-01-19T09:01:30.721Z,3.78
2023-01-19T09:03:58.153Z,5.82
2023-01-19T09:06:32.176Z,12.80
2023-01-19T09:08:59.502Z,24.42
2023-01-19T09:11:27.595Z,26.08
2023-01-19T09:13:54.848Z,9.03
2023-01-19T09:16:22.273Z,5.07
2023-01-19T09:18:49.773Z,21.73
2023-01-19T09:21:17.124Z,6.35
2023-01-19T09:23:44.669Z,9.80
2023-01-19T09:26:11.998Z,8.43
2023-01-19T09:28:39.712Z,4.95
2023-01-19T09:31:07.947Z,3.17
2023-01-19T09:33:35.777Z,3.30
2023-01-19T09:36:03.095Z,5.05
2023-01-19T09:38:32.857Z,3.90
2023-01-19T09:41:00.828Z,3.33
2023-01-19T09:43:38.133Z,1.45
2023-01-19T09:46:14.302Z,3.50
2023-01-19T09:48:45.837Z,2.45
2023-01-19T09:51:15.872Z,1.35
2023-01-19T09:53:50.519Z,1.45
2023-01-19T09:56:19.528Z,2.70
2023-01-19T09:58:47.263Z,3.28
2023-01-19T10:01:35.588Z,1.42
2023-01-19T10:04:29.438Z,2.25
2023-01-19T10:07:17.193Z,1.15
2023-01-19T10:09:50.488Z,4.93
2023-01-19T10:12:19.725Z,1.35
2023-01-19T10:14:54.624Z,1.13
2023-01-19T10:17:30.072Z,2.63
2023-01-19T10:19:58.226Z,3.45
2023-01-19T10:22:26.499Z,2.13
2023-01-19T10:24:55.496Z,2.60
2023-01-19T10:29:50.276Z,4.18
2023-01-19T10:32:26.148Z,4.47
2023-01-19T10:34:54.219Z,4.75
2023-01-19T10:37:21.517Z,11.53
2023-01-19T10:39:53.484Z,10.05
2023-01-19T10:42:21.108Z,11.18
2023-01-19T10:44:50.004Z,12.82
2023-01-19T10:49:44.635Z,4.13
2023-01-19T10:52:26.736Z,3.00
2023-01-19T10:54:54.111Z,2.40
2023-01-19T10:57:30.650Z,2.30
2023-01-19T10:59:58.019Z,2.83
2023-01-19T11:02:29.635Z,2.75
2023-01-19T11:05:01.437Z,3.17
2023-01-19T11:07:33.325Z,2.00
2023-01-19T11:10:20.904Z,1.67
2023-01-19T11:12:48.290Z,1.95
2023-01-19T11:15:23.575Z,3.95
2023-01-19T11:17:51.991Z,3.92
2023-01-19T11:20:20.622Z,4.70
2023-01-19T11:22:48.887Z,3.80
2023-01-19T11:25:27.363Z,3.38
2023-01-19T11:27:54.668Z,3.58
2023-01-19T11:30:23.353Z,4.68
2023-01-19T11:32:50.554Z,4.28
2023-01-19T11:35:29.883Z,5.10
2023-01-19T11:38:16.462Z,6.18
2023-01-19T11:40:47.306Z,15.02
2023-01-19T11:43:14.731Z,19.20
2023-01-19T11:45:42.284Z,25.75
2023-01-19T11:48:13.027Z,19.95
2023-01-19T11:50:43.025Z,15.27
2023-01-19T11:53:29.325Z,8.90
2023-01-19T11:55:56.945Z,7.38
2023-01-19T11:58:24.612Z,4.30
2023-01-19T12:00:57.876Z,5.88
2023-01-19T12:03:30.737Z,6.03
2023-01-19T12:06:00.782Z,2.65
2023-01-19T12:08:36.848Z,3.17
2023-01-19T12:11:05.663Z,42.05
2023-01-19T12:13:33.167Z,6.88
2023-01-19T12:16:01.961Z,3.83
2023-01-19T12:18:31.070Z,4.75
2023-01-19T12:20:58.921Z,6.50
2023-01-19T12:23:33.594Z,6.93
2023-01-19T12:26:06.860Z,63.10
2023-01-19T12:28:35.770Z,18.35
2023-01-19T12:33:35.135Z,5.50
2023-01-19T12:36:11.787Z,5.72
2023-01-19T12:38:52.821Z,11.70
2023-01-19T12:41:22.902Z,8.35
2023-01-19T12:44:16.429Z,7.10
2023-01-19T12:46:46.005Z,8.18
2023-01-19T12:49:24.499Z,4.07
2023-01-19T12:51:52.869Z,7.07
2023-01-19T12:55:05.135Z,7.22
2023-01-19T12:57:40.303Z,8.45
2023-01-19T13:00:38.194Z,11.00
2023-01-19T13:03:25.435Z,5.83
2023-01-19T13:05:56.507Z,6.22
2023-01-19T13:08:57.396Z,7.25
2023-01-19T13:11:27.110Z,13.07
2023-01-19T13:13:58.716Z,3.95
2023-01-19T13:16:28.843Z,2.33
2023-01-19T13:18:56.083Z,36.40
2023-01-19T13:21:43.600Z,4.85
2023-01-19T13:24:19.794Z,2.75
2023-01-19T13:26:50.149Z,3.75
2023-01-19T13:29:33.868Z,2.53
2023-01-19T13:32:05.266Z,13.45
2023-01-19T13:34:54.011Z,2.75
2023-01-19T13:39:51.893Z,8.20
2023-01-19T13:42:19.101Z,9.68
2023-01-19T13:44:53.150Z,8.32
2023-01-19T13:47:23.187Z,8.40
2023-01-19T13:49:59.827Z,6.47
2023-01-19T13:52:29.569Z,10.70
2023-01-19T13:55:03.063Z,10.95
2023-01-19T13:57:34.807Z,8.65
2023-01-19T14:00:22.215Z,7.28
2023-01-19T14:02:59.650Z,10.27
2023-01-19T14:05:31.789Z,8.27
2023-01-19T14:08:13.909Z,10.82
2023-01-19T14:10:41.491Z,9.95
2023-01-19T14:13:29.885Z,14.45
2023-01-19T14:15:59.152Z,17.73
2023-01-19T14:18:28.489Z,22.98
2023-01-19T14:21:15.064Z,17.75
2023-01-19T14:23:42.377Z,18.00
2023-01-19T14:26:37.620Z,92.53
2023-01-19T14:29:29.250Z,67.45
2023-01-19T14:32:02.555Z,20.55
2023-01-19T14:34:38.888Z,17.77
2023-01-19T14:37:29.272Z,11.23
2023-01-19T14:39:58.761Z,10.18
2023-01-19T14:42:34.077Z,9.68
2023-01-19T14:45:02.513Z,8.07
2023-01-19T14:47:33.576Z,8.95
2023-01-19T14:50:03.661Z,10.75
2023-01-19T14:52:33.195Z,2.97
2023-01-19T14:55:02.720Z,3.15
2023-01-19T14:57:29.982Z,4.95
2023-01-19T14:59:57.315Z,12.35
2023-01-19T15:02:24.665Z,15.48
2023-01-19T15:04:55.274Z,13.55
2023-01-19T15:07:24.598Z,18.65
2023-01-19T15:09:53.419Z,30.85
2023-01-19T15:12:24.111Z,24.27
2023-01-19T15:14:51.361Z,30.35
2023-01-19T15:17:25.474Z,14.85
2023-01-19T15:19:56.333Z,23.08
2023-01-19T15:22:27.293Z,25.25
2023-01-19T15:24:57.724Z,32.15
2023-01-19T15:27:25.017Z,26.58
2023-01-19T15:29:52.289Z,30.42
2023-01-19T15:32:19.547Z,18.95
2023-01-19T15:34:47.102Z,19.95
2023-01-19T15:37:14.383Z,20.02
2023-01-19T15:39:41.710Z,44.22
2023-01-19T15:42:15.596Z,48.83
2023-01-19T15:44:42.851Z,55.45
2023-01-19T15:47:10.955Z,92.63
2023-01-19T15:49:38.264Z,58.27
2023-01-19T15:52:05.651Z,115.97
2023-01-19T15:54:32.909Z,107.95
2023-01-19T15:57:00.130Z,60.13
2023-01-19T15:59:27.810Z,37.92
2023-01-19T16:01:55.114Z,33.90
2023-01-19T16:04:22.485Z,28.55
2023-01-19T16:06:50.141Z,37.20
2023-01-19T16:09:20.072Z,41.15
2023-01-19T16:11:47.543Z,33.92
2023-01-19T16:14:16.676Z,34.58
2023-01-19T16:16:46.159Z,108.30
2023-01-19T16:19:15.770Z,42.38
2023-01-19T16:21:44.046Z,110.25
2023-01-19T16:24:11.358Z,33.95
2023-01-19T16:26:38.731Z,56.97
2023-01-19T16:29:10.959Z,42.83
2023-01-19T16:31:39.085Z,45.92
2023-01-19T16:34:06.447Z,55.00
2023-01-19T16:36:34.943Z,52.53
2023-01-19T16:39:03.518Z,62.88
2023-01-19T16:41:30.928Z,63.72
2023-01-19T16:43:58.862Z,55.42
2023-01-19T16:46:27.586Z,65.25
2023-01-19T16:48:59.026Z,69.10
2023-01-19T16:51:26.322Z,94.90
2023-01-19T16:53:53.680Z,48.72
2023-01-19T16:56:20.833Z,48.13
2023-01-19T16:58:49.423Z,50.42
2023-01-19T17:01:20.039Z,59.92
2023-01-19T17:03:47.869Z,55.90
2023-01-19T17:06:18.062Z,43.38
2023-01-19T17:08:45.508Z,37.53
2023-01-19T17:11:23.027Z,44.13
2023-01-19T17:13:50.904Z,53.20
2023-01-19T17:16:18.207Z,43.00
2023-01-19T17:18:45.475Z,46.30
2023-01-19T17:21:12.844Z,17.70
2023-01-19T17:23:43.341Z,37.28
2023-01-19T17:26:10.775Z,31.60
2023-01-19T17:28:38.401Z,45.25
2023-01-19T17:31:06.786Z,24.75
2023-01-19T17:33:34.759Z,51.05
2023-01-19T17:36:06.033Z,37.50
2023-01-19T17:38:33.321Z,30.35
2023-01-19T17:41:00.561Z,30.98
2023-01-19T17:43:28.225Z,30.38
2023-01-19T17:45:55.574Z,26.77
2023-01-19T17:48:22.879Z,25.77
2023-01-19T17:50:50.824Z,27.00
2023-01-19T17:53:18.106Z,32.85
2023-01-19T17:55:45.234Z,41.75
2023-01-19T17:58:13.483Z,34.78
2023-01-19T18:00:40.739Z,39.55
2023-01-19T18:03:07.965Z,37.30
2023-01-19T18:05:35.218Z,42.83
2023-01-19T18:08:02.801Z,41.63
2023-01-19T18:10:30.084Z,43.78
2023-01-19T18:12:57.352Z,48.25
2023-01-19T18:15:24.591Z,32.65
2023-01-19T18:17:51.909Z,39.47
2023-01-19T18:20:19.229Z,39.13
2023-01-19T18:22:46.472Z,42.63
2023-01-19T18:25:13.709Z,50.75
2023-01-19T18:27:40.959Z,67.15
2023-01-19T18:30:08.825Z,40.65
2023-01-19T18:32:36.119Z,47.17
2023-01-19T18:35:04.846Z,56.10
2023-01-19T18:37:32.106Z,45.60
2023-01-19T18:40:02.198Z,42.50
2023-01-19T18:42:29.485Z,43.05
2023-01-19T18:44:56.750Z,31.52
2023-01-19T18:47:24.037Z,42.60
2023-01-19T18:49:51.279Z,44.63
2023-01-19T18:52:18.537Z,38.20
2023-01-19T18:54:45.832Z,33.40
2023-01-19T18:57:13.093Z,48.03
2023-01-19T18:59:43.925Z,51.17
2023-01-19T19:02:11.987Z,53.60
2023-01-19T19:04:39.358Z,60.07
2023-01-19T19:07:06.675Z,53.13
2023-01-19T19:09:34.016Z,39.45
2023-01-19T19:12:01.272Z,43.92
2023-01-19T19:14:28.534Z,51.55
2023-01-19T19:16:55.838Z,51.90
2023-01-19T19:19:23.065Z,45.17
2023-01-19T19:21:52.129Z,59.20
2023-01-19T19:24:19.380Z,69.90
2023-01-19T19:26:47.675Z,81.45
2023-01-19T19:29:14.934Z,77.05
2023-01-19T19:31:42.437Z,76.53
2023-01-19T19:34:12.332Z,82.53
2023-01-19T19:36:40.059Z,71.50
2023-01-19T19:39:07.312Z,68.30
2023-01-19T19:41:34.853Z,127.65
2023-01-19T19:44:03.205Z,120.25
2023-01-19T19:46:31.327Z,70.78
2023-01-19T19:48:58.731Z,56.05
2023-01-19T19:51:27.179Z,58.15
2023-01-19T19:53:58.950Z,118.18
2023-01-19T19:56:27.198Z,119.85
2023-01-19T19:58:55.435Z,72.57
2023-01-19T20:01:27.244Z,73.75
2023-01-19T20:03:56.847Z,64.18
2023-01-19T20:06:25.558Z,68.00
2023-01-19T20:08:54.187Z,106.78
2023-01-19T20:11:22.862Z,103.25
2023-01-19T20:13:50.817Z,135.82
2023-01-19T20:16:19.192Z,80.17
2023-01-19T20:18:56.863Z,88.57
2023-01-19T20:21:28.206Z,100.07
2023-01-19T20:23:56.794Z,46.78
2023-01-19T20:26:26.308Z,70.20
2023-01-19T20:28:53.980Z,93.05
2023-01-19T20:31:24.464Z,71.03
2023-01-19T20:33:54.929Z,93.22
2023-01-19T20:36:24.389Z,71.63
2023-01-19T20:38:52.788Z,65.65
2023-01-19T20:41:20.118Z,83.15
2023-01-19T20:43:47.347Z,66.47
2023-01-19T20:46:14.590Z,79.70
2023-01-19T20:48:41.907Z,45.15
2023-01-19T20:51:10.468Z,63.80
2023-01-19T20:53:38.837Z,69.97
2023-01-19T20:56:13.395Z,52.45
2023-01-19T20:58:40.678Z,63.72
2023-01-19T21:01:15.142Z,54.42
2023-01-19T21:03:42.843Z,60.85
2023-01-19T21:06:10.359Z,59.65
2023-01-19T21:08:38.260Z,44.97
2023-01-19T21:11:06.133Z,46.70
2023-01-19T21:13:33.958Z,49.53
2023-01-19T21:16:01.635Z,35.60
2023-01-19T21:18:29.129Z,46.33
2023-01-19T21:20:57.575Z,34.63
2023-01-19T21:23:25.718Z,38.35
2023-01-19T21:25:54.092Z,32.78
2023-01-19T21:28:22.750Z,46.38
2023-01-19T21:30:50.487Z,41.17
2023-01-19T21:33:18.030Z,42.22
2023-01-19T21:35:55.681Z,40.58
2023-01-19T21:38:24.061Z,51.28
2023-01-19T21:40:52.282Z,69.50
2023-01-19T21:43:20.159Z,56.25
2023-01-19T21:45:48.232Z,42.60
2023-01-19T21:48:15.800Z,78.53
2023-01-19T21:50:43.278Z,32.65
2023-01-19T21:53:11.408Z,50.08
2023-01-19T21:55:39.285Z,49.25
2023-01-19T21:58:06.563Z,45.20
2023-01-19T22:00:34.523Z,36.17
2023-01-19T22:03:04.430Z,51.17
2023-01-19T22:05:36.840Z,43.80
2023-01-19T22:08:04.897Z,92.05
2023-01-19T22:10:32.306Z,27.90
2023-01-19T22:12:59.705Z,42.20
2023-01-19T22:15:26.882Z,34.95
2023-01-19T22:17:54.111Z,49.13
2023-01-19T22:20:21.365Z,41.97
2023-01-19T22:22:48.545Z,40.65
2023-01-19T22:25:15.951Z,52.35
2023-01-19T22:27:43.170Z,74.07
2023-01-19T22:30:10.597Z,70.03
2023-01-19T22:32:37.774Z,56.97
2023-01-19T22:35:05.106Z,35.75
2023-01-19T22:37:36.002Z,50.58
2023-01-19T22:40:04.109Z,67.43
2023-01-19T22:42:31.743Z,46.10
2023-01-19T22:44:59.010Z,49.22
2023-01-19T22:47:26.243Z,97.85
2023-01-19T22:49:53.511Z,41.80
2023-01-19T22:52:21.185Z,25.85
2023-01-19T22:54:48.426Z,36.42
2023-01-19T22:57:15.746Z,54.15
2023-01-19T22:59:43.657Z,47.13
2023-01-19T23:02:12.366Z,20.50
2023-01-19T23:04:39.725Z,28.17
2023-01-19T23:07:09.310Z,21.42
2023-01-19T23:09:38.331Z,26.98
2023-01-19T23:12:05.803Z,23.25
2023-01-19T23:14:33.222Z,31.83
2023-01-19T23:17:00.521Z,96.22
2023-01-19T23:19:27.851Z,28.08
2023-01-19T23:21:55.095Z,48.65
2023-01-19T23:24:22.376Z,32.50
2023-01-19T23:26:50.626Z,34.60
2023-01-19T23:29:18.053Z,72.35
2023-01-19T23:31:46.580Z,18.05
2023-01-19T23:34:14.242Z,20.77
2023-01-19T23:36:42.199Z,45.03
2023-01-19T23:39:13.641Z,26.93
2023-01-19T23:41:40.932Z,28.17
2023-01-19T23:44:08.403Z,98.35
2023-01-19T23:46:35.712Z,41.22
2023-01-19T23:49:03.009Z,16.40
2023-01-19T23:51:31.103Z,28.63
2023-01-19T23:53:58.834Z,41.20
2023-01-19T23:56:25.998Z,27.50
2023-01-19T23:58:57.560Z,56.67
